createdAt,value
2018-05-27T00:00:21.038Z,22.60
2018-05-27T00:02:47.112Z,22.40
2018-05-27T00:05:13.127Z,22.50
2018-05-27T00:07:39.295Z,22.40
2018-05-27T00:10:06.392Z,22.20
2018-05-27T00:12:32.411Z,22.20
2018-05-27T00:14:58.621Z,22.20
2018-05-27T00:34:08.169Z,22.30
2018-05-27T00:36:34.158Z,22.20
2018-05-27T00:39:00.170Z,21.90
2018-05-27T00:41:26.296Z,21.80
2018-05-27T00:43:52.377Z,21.80
2018-05-27T00:46:18.497Z,21.90
2018-05-27T00:48:44.623Z,22.00
2018-05-27T00:51:10.591Z,22.00
2018-05-27T00:53:44.709Z,22.00
2018-05-27T00:56:10.805Z,22.00
2018-05-27T00:58:37.645Z,22.10
2018-05-27T01:01:04.162Z,22.00
2018-05-27T01:03:30.517Z,21.80
2018-05-27T01:05:56.500Z,21.70
2018-05-27T01:08:22.462Z,21.80
2018-05-27T01:10:48.681Z,21.90
2018-05-27T01:13:14.748Z,21.90
2018-05-27T01:15:40.769Z,21.80
2018-05-27T01:18:06.828Z,21.70
2018-05-27T01:20:32.829Z,21.80
2018-05-27T01:22:58.916Z,21.60
2018-05-27T01:25:25.277Z,21.50
2018-05-27T01:27:51.325Z,21.30
2018-05-27T01:30:17.361Z,21.40
2018-05-27T01:32:43.400Z,21.30
2018-05-27T01:35:09.370Z,21.20
2018-05-27T01:37:35.412Z,21.10
2018-05-27T01:40:01.659Z,21.10
2018-05-27T01:42:27.673Z,21.00
2018-05-27T01:44:53.723Z,20.90
2018-05-27T01:47:19.755Z,21.00
2018-05-27T01:49:45.772Z,21.00
2018-05-27T01:52:12.203Z,20.90
2018-05-27T01:54:39.024Z,21.00
2018-05-27T01:57:05.301Z,20.90
2018-05-27T01:59:31.963Z,20.80
2018-05-27T02:01:57.953Z,20.90
2018-05-27T02:04:23.959Z,20.90
2018-05-27T02:06:50.012Z,21.00
2018-05-27T02:09:16.096Z,21.00
2018-05-27T02:11:42.454Z,21.00
2018-05-27T02:14:08.467Z,21.10
2018-05-27T02:16:34.474Z,21.10
2018-05-27T02:19:00.520Z,21.10
2018-05-27T02:21:26.634Z,21.10
2018-05-27T02:23:52.671Z,21.00
2018-05-27T02:26:18.689Z,21.00
2018-05-27T02:28:44.685Z,20.90
2018-05-27T02:31:10.690Z,20.80
2018-05-27T02:33:36.732Z,20.70
2018-05-27T02:36:02.822Z,20.60
2018-05-27T02:38:29.868Z,20.70
2018-05-27T02:40:55.903Z,20.70
2018-05-27T02:43:21.912Z,20.60
2018-05-27T02:45:47.887Z,20.50
2018-05-27T02:48:13.849Z,20.40
2018-05-27T02:50:39.790Z,20.40
2018-05-27T02:53:05.869Z,20.50
2018-05-27T02:55:31.854Z,20.70
2018-05-27T02:57:57.875Z,20.70
2018-05-27T03:00:23.885Z,20.80
2018-05-27T03:02:49.955Z,20.70
2018-05-27T03:05:15.979Z,20.60
2018-05-27T03:07:41.974Z,20.60
2018-05-27T03:10:07.997Z,20.70
2018-05-27T03:12:34.080Z,20.80
2018-05-27T03:15:00.076Z,20.60
2018-05-27T03:17:26.094Z,20.60
2018-05-27T03:19:52.256Z,20.50
2018-05-27T03:22:18.218Z,20.50
2018-05-27T03:24:44.218Z,20.50
2018-05-27T03:27:10.224Z,20.60
2018-05-27T03:29:36.205Z,20.70
2018-05-27T03:32:02.241Z,20.80
2018-05-27T03:34:28.248Z,20.90
2018-05-27T03:36:54.997Z,20.80
2018-05-27T03:39:20.989Z,20.60
2018-05-27T03:41:47.011Z,20.60
2018-05-27T03:44:13.029Z,20.60
2018-05-27T03:46:39.361Z,20.80
2018-05-27T03:49:05.481Z,20.90
2018-05-27T03:51:31.632Z,20.80
2018-05-27T03:53:57.612Z,20.80
2018-05-27T03:56:23.560Z,20.80
2018-05-27T03:58:49.527Z,20.90
2018-05-27T04:01:15.518Z,21.00
2018-05-27T04:03:42.341Z,21.00
2018-05-27T04:06:20.713Z,21.00
2018-05-27T04:08:47.673Z,21.00
2018-05-27T04:11:13.697Z,20.90
2018-05-27T04:13:39.679Z,20.90
2018-05-27T04:16:05.856Z,21.00
2018-05-27T04:18:31.895Z,21.10
2018-05-27T04:20:57.891Z,21.20
2018-05-27T04:23:24.325Z,21.20
2018-05-27T04:25:50.283Z,21.20
2018-05-27T04:28:16.457Z,21.20
2018-05-27T04:30:42.432Z,21.00
2018-05-27T04:33:08.453Z,20.90
2018-05-27T04:35:34.475Z,20.90
2018-05-27T04:38:00.474Z,21.00
2018-05-27T04:40:26.557Z,21.00
2018-05-27T04:42:52.538Z,21.10
2018-05-27T04:45:18.553Z,21.10
2018-05-27T04:47:44.558Z,21.10
2018-05-27T04:50:11.279Z,21.10
2018-05-27T04:52:37.266Z,21.10
2018-05-27T04:55:03.224Z,21.10
2018-05-27T04:57:29.282Z,21.20
2018-05-27T04:59:55.301Z,21.30
2018-05-27T05:02:22.093Z,21.30
2018-05-27T05:04:48.157Z,21.30
2018-05-27T05:07:14.896Z,21.30
2018-05-27T05:09:40.897Z,21.30
2018-05-27T05:12:06.863Z,21.30
2018-05-27T05:14:32.859Z,21.40
2018-05-27T05:16:58.905Z,21.40
2018-05-27T05:19:24.894Z,21.60
2018-05-27T05:21:50.921Z,21.70
2018-05-27T05:24:17.982Z,21.70
2018-05-27T05:26:43.982Z,21.80
2018-05-27T05:29:10.132Z,21.80
2018-05-27T05:31:36.121Z,21.80
2018-05-27T05:34:02.120Z,21.90
2018-05-27T05:36:28.151Z,21.90
2018-05-27T05:38:54.845Z,22.00
2018-05-27T05:41:20.906Z,22.00
2018-05-27T05:43:46.989Z,22.10
2018-05-27T05:46:12.952Z,22.10
2018-05-27T05:48:38.936Z,22.10
2018-05-27T05:51:04.938Z,22.20
2018-05-27T05:53:30.957Z,22.30
2018-05-27T05:55:57.061Z,22.20
2018-05-27T05:58:23.023Z,22.10
2018-05-27T06:00:48.982Z,22.10
2018-05-27T06:03:15.055Z,22.20
2018-05-27T06:05:41.106Z,22.20
2018-05-27T06:08:07.088Z,22.10
2018-05-27T06:10:33.130Z,22.10
2018-05-27T06:12:59.166Z,22.10
2018-05-27T06:15:25.215Z,22.00
2018-05-27T06:34:36.743Z,22.30
2018-05-27T06:37:02.784Z,22.30
2018-05-27T06:39:28.797Z,22.30
2018-05-27T06:41:54.779Z,22.30
2018-05-27T06:44:20.797Z,22.30
2018-05-27T06:46:46.851Z,22.40
2018-05-27T06:49:12.874Z,22.70
2018-05-27T06:51:38.880Z,22.70
2018-05-27T06:54:04.865Z,22.70
2018-05-27T06:56:30.837Z,22.80
2018-05-27T06:58:56.841Z,22.90
2018-05-27T07:01:22.819Z,23.00
2018-05-27T07:03:48.827Z,23.10
2018-05-27T07:06:15.039Z,23.20
2018-05-27T07:08:41.025Z,23.40
2018-05-27T07:11:07.002Z,23.40
2018-05-27T07:13:33.062Z,23.60
2018-05-27T07:15:59.027Z,23.70
2018-05-27T07:18:25.244Z,23.80
2018-05-27T07:20:51.225Z,23.90
2018-05-27T07:23:17.799Z,24.10
2018-05-27T07:25:43.835Z,24.10
2018-05-27T07:28:09.886Z,24.10
2018-05-27T07:30:35.779Z,24.10
2018-05-27T07:33:02.253Z,24.20
2018-05-27T07:35:28.448Z,24.30
2018-05-27T07:37:54.413Z,24.40
2018-05-27T07:40:20.428Z,24.50
2018-05-27T07:42:47.545Z,24.60
2018-05-27T07:45:13.571Z,24.50
2018-05-27T07:47:39.541Z,24.60
2018-05-27T07:50:06.568Z,24.60
2018-05-27T07:52:32.840Z,24.80
2018-05-27T07:54:58.837Z,24.70
2018-05-27T07:57:24.895Z,24.80
2018-05-27T07:59:51.325Z,24.80
2018-05-27T08:02:17.717Z,24.70
2018-05-27T08:04:43.991Z,24.70
2018-05-27T08:07:09.998Z,24.80
2018-05-27T08:09:35.932Z,24.90
2018-05-27T08:12:01.900Z,25.00
2018-05-27T08:14:28.098Z,25.00
2018-05-27T08:16:54.371Z,25.00
2018-05-27T08:19:20.610Z,24.90
2018-05-27T08:21:47.902Z,24.90
2018-05-27T08:24:14.149Z,25.00
2018-05-27T08:26:40.529Z,24.90
2018-05-27T08:29:06.593Z,24.90
2018-05-27T08:31:32.611Z,25.10
2018-05-27T08:33:58.621Z,25.30
2018-05-27T08:36:27.126Z,25.50
2018-05-27T08:38:53.677Z,25.50
2018-05-27T08:41:20.754Z,25.60
2018-05-27T08:43:46.927Z,25.60
2018-05-27T08:46:13.083Z,25.60
2018-05-27T08:48:39.236Z,25.70
2018-05-27T08:51:05.437Z,25.80
2018-05-27T08:53:33.200Z,25.70
2018-05-27T08:55:59.245Z,25.80
2018-05-27T08:58:25.359Z,25.90
2018-05-27T09:00:51.686Z,26.00
2018-05-27T09:03:17.854Z,26.00
2018-05-27T09:05:43.948Z,26.00
2018-05-27T09:08:11.200Z,26.10
2018-05-27T09:10:37.311Z,26.30
2018-05-27T09:13:03.334Z,26.50
2018-05-27T09:15:30.359Z,26.60
2018-05-27T09:17:57.196Z,26.70
2018-05-27T09:20:23.982Z,26.90
2018-05-27T09:22:50.020Z,26.90
2018-05-27T09:25:17.563Z,26.90
2018-05-27T09:27:43.635Z,27.00
2018-05-27T09:30:10.434Z,27.00
2018-05-27T09:32:36.595Z,27.00
2018-05-27T09:35:02.609Z,27.10
2018-05-27T09:37:28.638Z,27.20
2018-05-27T09:39:54.871Z,27.30
2018-05-27T09:59:05.799Z,27.80
2018-05-27T10:01:31.988Z,27.90
2018-05-27T10:03:58.821Z,27.90
2018-05-27T10:06:26.236Z,27.90
2018-05-27T10:08:52.201Z,28.00
2018-05-27T10:11:18.335Z,28.00
2018-05-27T10:13:44.381Z,28.10
2018-05-27T10:16:10.372Z,28.30
2018-05-27T10:18:36.430Z,28.40
2018-05-27T10:21:02.629Z,28.60
2018-05-27T10:23:28.676Z,28.60
2018-05-27T10:25:58.822Z,28.60
2018-05-27T10:28:25.497Z,28.60
2018-05-27T10:30:51.557Z,28.50
2018-05-27T10:33:17.699Z,28.60
2018-05-27T10:35:46.372Z,28.80
2018-05-27T10:38:12.508Z,28.80
2018-05-27T10:40:39.224Z,28.80
2018-05-27T10:43:07.124Z,29.00
2018-05-27T10:45:35.487Z,29.20
2018-05-27T10:48:02.117Z,29.30
2018-05-27T10:50:28.194Z,29.40
2018-05-27T10:52:54.299Z,29.30
2018-05-27T10:55:20.298Z,29.30
2018-05-27T10:57:46.466Z,29.40
2018-05-27T11:00:12.651Z,29.50
2018-05-27T11:02:38.891Z,29.50
2018-05-27T11:05:05.010Z,29.60
2018-05-27T11:07:31.346Z,29.60
2018-05-27T11:09:57.384Z,29.70
2018-05-27T11:12:25.083Z,29.70
2018-05-27T11:14:51.565Z,29.70
2018-05-27T11:17:18.227Z,29.80
2018-05-27T11:19:44.600Z,29.80
2018-05-27T11:22:10.822Z,30.00
2018-05-27T11:24:37.793Z,30.20
2018-05-27T11:27:03.764Z,30.40
2018-05-27T11:29:29.714Z,30.50
2018-05-27T11:31:55.941Z,30.10
2018-05-27T11:34:21.964Z,29.90
2018-05-27T11:36:48.090Z,29.90
2018-05-27T11:39:14.187Z,30.20
2018-05-27T11:41:40.305Z,30.30
2018-05-27T11:44:06.358Z,30.50
2018-05-27T11:46:32.396Z,30.80
2018-05-27T11:48:58.691Z,30.90
2018-05-27T11:51:24.689Z,31.00
2018-05-27T11:53:51.835Z,31.20
2018-05-27T11:56:17.957Z,31.10
2018-05-27T11:58:43.976Z,31.20
2018-05-27T12:01:09.971Z,31.20
2018-05-27T12:03:35.974Z,31.10
2018-05-27T12:06:01.982Z,31.20
2018-05-27T12:08:28.017Z,31.30
2018-05-27T12:10:54.118Z,31.20
2018-05-27T12:13:20.333Z,31.00
2018-05-27T12:15:46.364Z,30.70
2018-05-27T12:18:12.727Z,30.70
2018-05-27T12:20:38.737Z,30.30
2018-05-27T12:23:04.850Z,30.20
2018-05-27T12:25:30.958Z,30.40
2018-05-27T12:27:57.447Z,30.90
2018-05-27T12:30:24.078Z,31.20
2018-05-27T12:32:50.171Z,31.40
2018-05-27T12:35:16.445Z,31.30
2018-05-27T12:37:43.455Z,31.50
2018-05-27T12:40:09.524Z,31.80
2018-05-27T12:42:35.687Z,32.10
2018-05-27T12:45:01.652Z,32.20
2018-05-27T12:47:27.805Z,31.70
2018-05-27T12:49:53.882Z,31.30
2018-05-27T12:52:19.867Z,31.40
2018-05-27T12:54:46.153Z,31.70
2018-05-27T12:57:12.324Z,32.30
2018-05-27T12:59:38.788Z,32.60
2018-05-27T13:02:04.731Z,32.40
2018-05-27T13:04:30.692Z,32.20
2018-05-27T13:06:56.788Z,32.50
2018-05-27T13:09:24.077Z,32.90
2018-05-27T13:11:50.102Z,33.10
2018-05-27T13:14:16.623Z,33.10
2018-05-27T13:16:42.839Z,33.30
2018-05-27T13:19:08.766Z,33.40
2018-05-27T13:21:35.671Z,33.50
2018-05-27T13:24:01.700Z,33.60
2018-05-27T13:26:29.236Z,33.80
2018-05-27T13:28:55.298Z,33.90
2018-05-27T13:48:12.143Z,33.50
2018-05-27T13:50:38.211Z,33.00
2018-05-27T13:53:04.225Z,33.20
2018-05-27T13:55:30.402Z,33.10
2018-05-27T13:57:56.507Z,32.90
2018-05-27T14:00:22.505Z,32.80
2018-05-27T14:02:48.667Z,32.70
2018-05-27T14:05:14.719Z,32.60
2018-05-27T14:07:40.794Z,32.40
2018-05-27T14:10:07.155Z,32.10
2018-05-27T14:12:33.150Z,31.90
2018-05-27T14:14:59.338Z,31.80
2018-05-27T14:17:25.408Z,31.60
2018-05-27T14:19:51.646Z,31.30
2018-05-27T14:22:17.762Z,31.40
2018-05-27T14:24:43.765Z,31.40
2018-05-27T14:27:09.753Z,31.40
2018-05-27T14:29:35.978Z,31.50
2018-05-27T14:32:02.013Z,31.50
2018-05-27T14:34:28.020Z,31.40
2018-05-27T14:36:54.134Z,31.30
2018-05-27T14:39:20.160Z,31.40
2018-05-27T14:41:46.168Z,31.30
2018-05-27T14:44:12.189Z,31.20
2018-05-27T14:46:38.207Z,31.10
2018-05-27T14:49:04.251Z,31.10
2018-05-27T14:51:30.388Z,31.10
2018-05-27T14:53:56.394Z,31.00
2018-05-27T14:56:22.845Z,30.90
2018-05-27T14:58:48.846Z,30.80
2018-05-27T15:01:14.958Z,30.80
2018-05-27T15:03:41.690Z,30.70
2018-05-27T15:06:07.889Z,30.70
2018-05-27T15:08:34.915Z,30.60
2018-05-27T15:11:00.931Z,30.60
2018-05-27T15:13:27.003Z,30.40
2018-05-27T15:15:53.144Z,30.20
2018-05-27T15:18:19.128Z,30.00
2018-05-27T15:20:45.314Z,29.90
2018-05-27T15:23:11.301Z,29.70
2018-05-27T15:25:37.374Z,29.80
2018-05-27T15:28:03.488Z,29.60
2018-05-27T15:30:29.535Z,29.50
2018-05-27T15:32:55.648Z,29.40
2018-05-27T15:35:21.660Z,29.30
2018-05-27T15:37:48.416Z,29.30
2018-05-27T15:40:14.504Z,29.20
2018-05-27T15:42:40.515Z,29.20
2018-05-27T15:45:06.547Z,29.10
2018-05-27T15:47:33.306Z,29.20
2018-05-27T15:49:59.359Z,29.10
2018-05-27T15:52:25.475Z,29.10
2018-05-27T15:54:51.512Z,29.20
2018-05-27T15:57:17.601Z,29.00
2018-05-27T15:59:43.864Z,28.70
2018-05-27T16:02:09.965Z,28.60
2018-05-27T16:04:35.940Z,28.60
2018-05-27T16:07:01.985Z,28.60
2018-05-27T16:09:28.008Z,28.40
2018-05-27T16:11:54.030Z,28.40
2018-05-27T16:14:20.047Z,28.30
2018-05-27T16:16:46.395Z,28.30
2018-05-27T16:19:12.401Z,28.30
2018-05-27T16:21:38.425Z,28.40
2018-05-27T16:24:04.500Z,28.30
2018-05-27T16:26:30.496Z,28.30
2018-05-27T16:28:56.523Z,28.20
2018-05-27T16:31:22.585Z,28.30
2018-05-27T16:33:48.640Z,28.20
2018-05-27T16:36:14.772Z,28.10
2018-05-27T16:38:40.768Z,28.10
2018-05-27T16:41:08.404Z,28.00
2018-05-27T16:43:34.394Z,28.00
2018-05-27T16:46:00.474Z,28.00
2018-05-27T16:48:26.474Z,28.00
2018-05-27T16:50:52.542Z,28.10
2018-05-27T16:53:18.585Z,28.00
2018-05-27T16:55:44.555Z,28.00
2018-05-27T16:58:10.685Z,27.90
2018-05-27T17:00:36.805Z,27.70
2018-05-27T17:03:02.860Z,27.70
2018-05-27T17:05:29.065Z,27.60
2018-05-27T17:07:55.241Z,27.60
2018-05-27T17:10:21.361Z,27.60
2018-05-27T17:12:47.457Z,27.50
2018-05-27T17:15:13.513Z,27.60
2018-05-27T17:17:39.513Z,27.60
2018-05-27T17:20:05.683Z,27.50
2018-05-27T17:22:31.697Z,27.50
2018-05-27T17:24:57.793Z,27.50
2018-05-27T17:27:23.936Z,27.50
2018-05-27T17:29:50.981Z,27.50
2018-05-27T17:32:17.977Z,27.50
2018-05-27T17:34:44.110Z,27.50
2018-05-27T17:37:10.127Z,27.40
2018-05-27T17:39:36.144Z,27.40
2018-05-27T17:42:02.098Z,27.40
2018-05-27T17:44:28.634Z,27.40
2018-05-27T17:46:54.848Z,27.40
2018-05-27T17:49:20.888Z,27.40
2018-05-27T17:51:46.895Z,27.40
2018-05-27T17:54:12.951Z,27.40
2018-05-27T17:56:39.245Z,27.30
2018-05-27T17:59:05.233Z,27.30
2018-05-27T18:01:31.518Z,27.30
2018-05-27T18:03:58.164Z,27.30
2018-05-27T18:06:24.678Z,27.40
2018-05-27T18:08:50.816Z,27.40
2018-05-27T18:11:17.443Z,27.50
2018-05-27T18:13:44.153Z,27.40
2018-05-27T18:16:11.366Z,27.40
2018-05-27T18:18:37.766Z,27.40
2018-05-27T18:21:03.962Z,27.30
2018-05-27T18:40:16.193Z,27.40
2018-05-27T18:42:42.261Z,27.40
2018-05-27T18:45:08.768Z,27.30
2018-05-27T18:47:34.710Z,27.20
2018-05-27T18:50:00.824Z,27.20
2018-05-27T18:52:27.235Z,27.20
2018-05-27T18:55:00.683Z,27.00
2018-05-27T18:57:27.160Z,27.00
2018-05-27T18:59:53.412Z,26.90
2018-05-27T19:02:19.444Z,26.90
2018-05-27T19:04:45.412Z,26.90
2018-05-27T19:07:12.176Z,26.90
2018-05-27T19:09:38.216Z,26.80
2018-05-27T19:12:04.196Z,26.80
2018-05-27T19:14:30.251Z,26.70
2018-05-27T19:16:56.221Z,26.60
2018-05-27T19:19:22.273Z,26.50
2018-05-27T19:21:48.302Z,26.60
2018-05-27T19:24:14.420Z,26.60
2018-05-27T19:26:40.590Z,26.50
2018-05-27T19:29:06.660Z,26.40
2018-05-27T19:31:32.738Z,26.30
2018-05-27T19:33:59.916Z,26.00
2018-05-27T19:36:26.813Z,25.90
2018-05-27T19:38:53.117Z,25.90
2018-05-27T19:41:20.025Z,26.00
2018-05-27T19:43:46.136Z,26.00
2018-05-27T19:46:12.264Z,26.00
2018-05-27T19:48:38.257Z,25.90
2018-05-27T19:51:04.286Z,25.90
2018-05-27T19:53:30.323Z,25.90
2018-05-27T19:55:56.407Z,25.90
2018-05-27T19:58:23.607Z,25.90
2018-05-27T20:00:51.198Z,25.80
2018-05-27T20:03:17.248Z,25.80
2018-05-27T20:05:43.269Z,25.80
2018-05-27T20:08:10.278Z,25.80
2018-05-27T20:10:36.281Z,25.70
2018-05-27T20:13:02.429Z,25.70
2018-05-27T20:15:29.303Z,25.70
2018-05-27T20:17:55.275Z,25.70
2018-05-27T20:20:21.253Z,25.50
2018-05-27T20:22:47.212Z,25.40
2018-05-27T20:25:13.229Z,25.30
2018-05-27T20:27:39.454Z,25.30
2018-05-27T20:30:05.477Z,25.30
2018-05-27T20:32:32.456Z,25.20
2018-05-27T20:34:58.466Z,25.00
2018-05-27T20:37:24.443Z,24.80
2018-05-27T20:39:50.476Z,24.70
2018-05-27T20:42:16.860Z,24.70
2018-05-27T20:44:43.354Z,24.70
2018-05-27T20:47:09.378Z,24.60
2018-05-27T20:49:36.133Z,24.60
2018-05-27T20:52:02.105Z,24.60
2018-05-27T20:54:28.724Z,24.50
2018-05-27T20:56:54.691Z,24.50
2018-05-27T20:59:20.833Z,24.60
2018-05-27T21:01:49.873Z,24.40
2018-05-27T21:04:15.897Z,24.20
2018-05-27T21:06:41.895Z,24.20
2018-05-27T21:09:07.867Z,24.20
2018-05-27T21:11:33.962Z,24.10
2018-05-27T21:13:59.980Z,24.00
2018-05-27T21:16:26.204Z,23.90
2018-05-27T21:18:52.214Z,23.90
2018-05-27T21:21:18.168Z,23.80
2018-05-27T21:23:45.039Z,23.90
2018-05-27T21:26:10.991Z,24.00
2018-05-27T21:28:37.013Z,23.90
2018-05-27T21:31:03.062Z,24.00
2018-05-27T21:33:29.004Z,23.90
2018-05-27T21:35:55.977Z,23.90
2018-05-27T21:38:22.050Z,23.80
2018-05-27T21:40:48.033Z,23.80
2018-05-27T21:43:14.042Z,23.70
2018-05-27T21:45:40.005Z,23.70
2018-05-27T21:48:06.821Z,23.60
2018-05-27T21:50:32.870Z,23.70
2018-05-27T21:52:58.803Z,23.70
2018-05-27T21:55:24.802Z,23.60
2018-05-27T21:57:50.765Z,23.60
2018-05-27T22:00:16.763Z,23.60
2018-05-27T22:02:42.756Z,23.60
2018-05-27T22:05:08.700Z,23.60
2018-05-27T22:07:34.696Z,23.50
2018-05-27T22:10:00.737Z,23.40
2018-05-27T22:12:26.694Z,23.20
2018-05-27T22:14:52.798Z,23.10
2018-05-27T22:17:18.964Z,23.10
2018-05-27T22:19:45.146Z,23.20
2018-05-27T22:22:11.142Z,23.30
2018-05-27T22:24:37.097Z,23.20
2018-05-27T22:27:03.172Z,23.20
2018-05-27T22:29:29.571Z,23.20
2018-05-27T22:31:55.911Z,23.20
2018-05-27T22:34:21.958Z,23.10
2018-05-27T22:36:47.959Z,23.10
2018-05-27T22:39:14.001Z,23.00
2018-05-27T22:41:39.999Z,22.90
2018-05-27T22:44:06.223Z,22.80
2018-05-27T22:46:32.468Z,22.70
2018-05-27T22:48:58.472Z,22.80
2018-05-27T22:51:24.656Z,22.80
2018-05-27T22:53:50.749Z,22.60
2018-05-27T22:56:16.696Z,22.50
2018-05-27T22:58:42.643Z,22.60
2018-05-27T23:01:08.650Z,22.50
2018-05-27T23:03:34.593Z,22.60
2018-05-27T23:06:00.575Z,22.70
2018-05-27T23:08:26.651Z,22.70
2018-05-27T23:10:52.710Z,22.70
2018-05-27T23:13:18.711Z,22.70
2018-05-27T23:15:44.684Z,22.60
2018-05-27T23:18:10.635Z,22.70
2018-05-27T23:20:36.576Z,22.70
2018-05-27T23:23:02.651Z,22.60
2018-05-27T23:25:28.645Z,22.50
2018-05-27T23:27:54.776Z,22.40
2018-05-27T23:30:20.728Z,22.20
2018-05-27T23:32:46.672Z,22.10
2018-05-27T23:35:12.636Z,22.00
2018-05-27T23:37:38.565Z,22.00
2018-05-27T23:40:04.613Z,22.00
2018-05-27T23:42:31.341Z,21.90
2018-05-27T23:44:57.409Z,21.90
2018-05-27T23:47:23.368Z,21.90
2018-05-27T23:49:49.732Z,22.00
2018-05-27T23:52:16.746Z,22.00
2018-05-27T23:54:42.827Z,22.10
2018-05-27T23:57:08.804Z,22.10
2018-05-27T23:59:34.789Z,22.10
